Decoded Metar for UWKS ( in _UNIDENTIFIED) (IATA:N/A) | Meteo·Mobile Aviation Weather
aviador You're here:

UWKS Decoded Metar

in _UNIDENTIFIED
Report Time2019-07-24 04:00:00
UTC Time2019-07-24 04:27:47
Flight Rules vfr VFR
Wind170° at 4 kt
W.Decomp.*RWY 24: 0.6 kt HW 4 kt LCW
Visibility9999 m
Phenomena:N/A
Clouds:Scattered CB 034 Hf
Expected CloudBase > 1,200 ft AGL from Temp-Dew spread
CeilingNone
Temp17°C (ISA +3)
Dew Point14°C (83% RH)
AAT16.9°C
QNH1017 hPa
Density Alt1,004 ft
Elevation558 ft
Report Wrong Elevation
Raw Report
METAR UWKS 240400Z 17002MPS 9999 SCT034CB 17/14 Q1017 R06/010060
NOSIG RMK QFE748=

Extra information for UWKS:More info

Metar Taf Metar & Taf Last 4 Metars F.Rules Stats Wind Profile Meteogram Temp Stats Metar ALERT Operation Metar Decoded Social comments